Cedar Flat, Kentucky
Current Conditions -  °F | °C
As of 9:35 AM on Friday 19 Dec 2014 (Local Time) from KGLW Reporting Station
Scattered Clouds Scattered Clouds  
Wind Chill: 28°   Ceiling: Unl
Heat Index: 33°   Visibility: 7mi
Dew Point: 26°   Wind: 6mph
Humidity: 74%   Direction: 50°NE
Pressure: 30.29"   Gusts: NA
Location:  36.9886°N, 85.5829°W
Report Text: KGLW 191535Z AUTO 05005KT 7SM SCT012 01/M03 A3029 RMK AO2 T00071034
Loading
Personal Weather Stations






























Interactive Weather Map New forecast layout! Learn more

10-Day Weather Forecast

Advertisements
Track Severe Weather on mobile